Time;durP1;ratioP1;P1;durP2;ratioP2;P2;SDS_P1;SDS_P2;PMS_P1;PMS_P2;Temp;Humidity;BMP_temperature;BMP_pressure;BME280_temperature;BME280_humidity;BME280_pressure;Samples;Min_cycle;Max_cycle;Signal;HPM_P1;HPM_P2
2024/02/09 00:00:55;;;;;;;15.73;10.43;;;;;;;-145.63;100.00;61273.97;5016269;28;20064;-63
2024/02/09 00:03:25;;;;;;;15.98;10.38;;;;;;;-145.63;100.00;61273.97;5031976;28;20052;-63
2024/02/09 00:05:52;;;;;;;13.82;10.27;;;;;;;-145.63;100.00;61273.97;5032398;28;20097;-65
2024/02/09 00:08:21;;;;;;;16.35;11.38;;;;;;;-145.63;100.00;61273.97;5017964;28;20065;-64
2024/02/09 00:10:47;;;;;;;15.35;9.88;;;;;;;-145.63;100.00;61273.97;5024654;28;20026;-64
2024/02/09 00:13:14;;;;;;;15.20;10.90;;;;;;;-145.63;100.00;61273.97;5050732;28;20107;-64
2024/02/09 00:15:45;;;;;;;16.20;10.68;;;;;;;-145.63;100.00;61273.97;5047550;28;20390;-63
2024/02/09 00:18:18;;;;;;;17.23;11.18;;;;;;;-145.63;100.00;61273.97;5034741;28;20061;-64
2024/02/09 00:20:45;;;;;;;18.15;10.70;;;;;;;-145.63;100.00;61273.97;5017671;28;20038;-63
2024/02/09 00:23:12;;;;;;;16.70;10.63;;;;;;;-145.63;100.00;61273.97;5035632;28;20033;-63
2024/02/09 00:25:38;;;;;;;15.48;10.30;;;;;;;-145.63;100.00;61273.97;5041458;28;20055;-64
2024/02/09 00:28:05;;;;;;;15.80;10.93;;;;;;;-145.63;100.00;61273.97;5034173;28;20084;-64
2024/02/09 00:30:32;;;;;;;15.63;10.32;;;;;;;-145.63;100.00;61273.97;5032819;28;20037;-63
2024/02/09 00:33:03;;;;;;;16.70;10.02;;;;;;;-145.63;100.00;61273.97;5031469;28;20442;-63
2024/02/09 00:35:29;;;;;;;18.98;11.10;;;;;;;-145.63;100.00;61273.97;5031869;28;20052;-64
2024/02/09 00:38:00;;;;;;;17.15;10.55;;;;;;;-145.63;100.00;61273.97;5032577;28;20069;-67
2024/02/09 00:40:25;;;;;;;16.40;10.93;;;;;;;-145.63;100.00;61273.97;5034956;28;20171;-66
2024/02/09 00:42:51;;;;;;;16.33;10.75;;;;;;;-145.63;100.00;61273.97;5034488;28;20475;-66
2024/02/09 00:45:20;;;;;;;15.52;10.75;;;;;;;-145.63;100.00;61273.97;5032092;28;20399;-64
2024/02/09 00:47:47;;;;;;;14.95;10.98;;;;;;;-145.63;100.00;61273.97;5031218;28;20033;-64
2024/02/09 00:50:17;;;;;;;15.02;10.18;;;;;;;-145.63;100.00;61273.97;5031191;28;20028;-63
2024/02/09 00:52:53;;;;;;;18.63;10.85;;;;;;;-145.63;100.00;61273.97;5031552;28;20037;-64
2024/02/09 00:55:20;;;;;;;18.55;11.30;;;;;;;-145.63;100.00;61273.97;5031602;28;20030;-64
2024/02/09 00:57:46;;;;;;;17.73;11.23;;;;;;;-145.63;100.00;61273.97;5015322;28;20029;-64
2024/02/09 01:00:13;;;;;;;18.05;11.55;;;;;;;-145.63;100.00;61273.97;5031435;28;20082;-64
2024/02/09 01:02:51;;;;;;;17.42;11.80;;;;;;;-145.63;100.00;61273.97;5031298;28;20026;-66
2024/02/09 01:05:18;;;;;;;15.40;11.15;;;;;;;-145.63;100.00;61273.97;5030113;28;20128;-66
2024/02/09 01:07:46;;;;;;;15.05;10.35;;;;;;;-145.63;100.00;61273.97;5018990;28;20123;-65
2024/02/09 01:10:12;;;;;;;14.43;11.25;;;;;;;-145.63;100.00;61273.97;5018276;28;20037;-64
2024/02/09 02:46:32;;;;;;;19.25;11.77;;;;;;;-145.63;100.00;61273.97;5033385;28;20045;-66
2024/02/09 03:05:28;;;;;;;14.85;10.55;;;;;;;-145.63;100.00;61273.97;5032998;28;20033;-66
2024/02/09 03:07:56;;;;;;;13.98;10.20;;;;;;;-145.63;100.00;61273.97;5033416;28;20047;-65
2024/02/09 03:10:22;;;;;;;16.95;11.43;;;;;;;-145.63;100.00;61273.97;5031680;28;20033;-65
2024/02/09 03:12:49;;;;;;;16.48;11.50;;;;;;;-145.63;100.00;61273.97;5048700;28;20044;-65
2024/02/09 03:15:18;;;;;;;16.17;10.35;;;;;;;-145.63;100.00;61273.97;5052687;28;20094;-65
2024/02/09 03:17:46;;;;;;;16.02;10.02;;;;;;;-145.63;100.00;61273.97;5016095;28;20030;-63
2024/02/09 03:20:12;;;;;;;17.50;11.02;;;;;;;-145.63;100.00;61273.97;5027039;28;20137;-68
2024/02/09 03:22:38;;;;;;;17.77;10.43;;;;;;;-145.63;100.00;61273.97;5033187;28;20504;-66
2024/02/09 03:25:06;;;;;;;16.63;11.00;;;;;;;-145.63;100.00;61273.97;5036993;28;20040;-65
2024/02/09 03:27:39;;;;;;;16.02;10.75;;;;;;;-145.63;100.00;61273.97;5039163;28;20048;-65
2024/02/09 03:30:06;;;;;;;17.73;11.48;;;;;;;-145.63;100.00;61273.97;5033038;28;20071;-65
2024/02/09 03:32:33;;;;;;;15.52;10.85;;;;;;;-145.63;100.00;61273.97;5031434;28;20039;-66
2024/02/09 03:35:01;;;;;;;16.42;11.57;;;;;;;-145.63;100.00;61273.97;5032619;28;20422;-65
2024/02/09 03:37:33;;;;;;;16.17;11.55;;;;;;;-145.63;100.00;61273.97;5025084;28;20100;-65
2024/02/09 03:40:02;;;;;;;17.20;11.32;;;;;;;-145.63;100.00;61273.97;5015989;28;20099;-65
2024/02/09 03:42:31;;;;;;;16.45;10.73;;;;;;;-145.63;100.00;61273.97;5032815;28;20069;-66
2024/02/09 03:44:58;;;;;;;14.88;10.57;;;;;;;-145.63;100.00;61273.97;5032298;28;20037;-66
2024/02/09 03:47:26;;;;;;;15.45;10.30;;;;;;;-145.63;100.00;61273.97;5032697;28;20029;-66
2024/02/09 03:49:56;;;;;;;16.48;10.73;;;;;;;-145.63;100.00;61273.97;5052442;28;20036;-65
2024/02/09 03:52:23;;;;;;;18.92;12.13;;;;;;;-145.63;100.00;61273.97;5031936;28;20029;-68
2024/02/09 03:54:51;;;;;;;19.90;11.88;;;;;;;-145.63;100.00;61273.97;5014107;28;20109;-65
2024/02/09 03:57:18;;;;;;;15.73;10.68;;;;;;;-145.63;100.00;61273.97;5016802;28;20113;-65
2024/02/09 03:59:44;;;;;;;16.02;10.93;;;;;;;-145.63;100.00;61273.97;5028701;28;20021;-65
2024/02/09 04:02:10;;;;;;;16.58;11.40;;;;;;;-145.63;100.00;61273.97;5018281;28;20367;-63
2024/02/09 04:04:36;;;;;;;17.30;11.50;;;;;;;-145.63;100.00;61273.97;5012237;28;20140;-63
2024/02/09 04:07:02;;;;;;;16.10;11.45;;;;;;;-145.63;100.00;61273.97;5018979;28;20430;-63
2024/02/09 04:09:28;;;;;;;17.80;11.77;;;;;;;-145.63;100.00;61273.97;5031732;28;20029;-64
2024/02/09 04:11:57;;;;;;;18.45;11.10;;;;;;;-145.63;100.00;61273.97;5035077;28;20491;-64
2024/02/09 04:14:23;;;;;;;14.63;10.63;;;;;;;-145.63;100.00;61273.97;5051732;28;20040;-64
2024/02/09 04:16:51;;;;;;;14.98;10.27;;;;;;;-145.63;100.00;61273.97;5038484;28;20026;-64
2024/02/09 04:19:17;;;;;;;16.65;10.63;;;;;;;-145.63;100.00;61273.97;5027802;28;20060;-64
2024/02/09 04:21:47;;;;;;;15.13;9.98;;;;;;;-145.63;100.00;61273.97;5031533;28;20037;-63
2024/02/09 04:24:20;;;;;;;15.88;10.88;;;;;;;-145.63;100.00;61273.97;5031622;28;20033;-64
2024/02/09 04:26:46;;;;;;;15.75;9.93;;;;;;;-145.63;100.00;61273.97;5014220;28;20037;-64
2024/02/09 04:29:15;;;;;;;14.18;9.88;;;;;;;-145.63;100.00;61273.97;5023325;28;20435;-65
2024/02/09 04:31:44;;;;;;;16.40;10.40;;;;;;;-145.63;100.00;61273.97;5022645;28;20460;-64
2024/02/09 04:34:13;;;;;;;16.40;11.52;;;;;;;-145.63;100.00;61273.97;5016088;28;20619;-64
2024/02/09 04:36:39;;;;;;;16.30;10.27;;;;;;;-145.63;100.00;61273.97;5030988;28;20524;-62
2024/02/09 04:39:10;;;;;;;17.13;11.30;;;;;;;-145.63;100.00;61273.97;5012078;28;20548;-63
2024/02/09 04:41:41;;;;;;;17.00;11.32;;;;;;;-145.63;100.00;61273.97;5027717;28;20033;-62
2024/02/09 04:44:07;;;;;;;16.33;10.50;;;;;;;-145.63;100.00;61273.97;5024678;28;20034;-64
2024/02/09 04:46:33;;;;;;;18.08;11.07;;;;;;;-145.63;100.00;61273.97;5019450;28;20119;-64
2024/02/09 04:49:00;;;;;;;12.73;9.40;;;;;;;-145.63;100.00;61273.97;5031536;28;20030;-64
2024/02/09 04:51:26;;;;;;;15.43;10.27;;;;;;;-145.63;100.00;61273.97;5031689;28;20048;-63
2024/02/09 04:53:51;;;;;;;15.95;10.00;;;;;;;-145.63;100.00;61273.97;5033866;28;20029;-63
2024/02/09 04:56:30;;;;;;;14.45;10.23;;;;;;;-145.63;100.00;61273.97;5034965;28;20382;-62
2024/02/09 04:59:00;;;;;;;17.65;10.90;;;;;;;-145.63;100.00;61273.97;5030406;28;20426;-63
2024/02/09 05:01:37;;;;;;;14.30;9.93;;;;;;;-145.63;100.00;61273.97;5028096;28;20045;-63
2024/02/09 05:04:12;;;;;;;15.25;10.43;;;;;;;-145.63;100.00;61273.97;5033176;28;20024;-63
2024/02/09 05:06:39;;;;;;;13.07;9.75;;;;;;;-145.63;100.00;61273.97;5029072;28;20068;-63
2024/02/09 05:09:08;;;;;;;14.70;9.75;;;;;;;-145.63;100.00;61273.97;5029888;28;20034;-63
2024/02/09 05:11:36;;;;;;;20.38;10.25;;;;;;;-145.63;100.00;61273.97;5029445;28;20486;-63
2024/02/09 05:14:13;;;;;;;14.75;9.95;;;;;;;-145.63;100.00;61273.97;5029904;28;20398;-63
2024/02/09 05:16:40;;;;;;;14.82;10.20;;;;;;;-145.63;100.00;61273.97;5016830;28;20032;-62
2024/02/09 05:19:09;;;;;;;17.42;10.07;;;;;;;-145.63;100.00;61273.97;5018254;28;20034;-62
2024/02/09 05:21:35;;;;;;;16.52;9.75;;;;;;;-145.63;100.00;61273.97;5034957;28;20120;-63
2024/02/09 05:24:03;;;;;;;18.08;10.48;;;;;;;-145.63;100.00;61273.97;5030773;28;20377;-63
2024/02/09 05:26:28;;;;;;;16.33;9.55;;;;;;;-145.63;100.00;61273.97;5030038;28;20026;-62
2024/02/09 05:28:54;;;;;;;16.20;9.35;;;;;;;-145.63;100.00;61273.97;5033493;28;20704;-63
2024/02/09 05:31:23;;;;;;;14.02;9.20;;;;;;;-145.63;100.00;61273.97;5029250;28;20057;-62
2024/02/09 05:33:53;;;;;;;13.63;9.15;;;;;;;-145.63;100.00;61273.97;5015913;28;20026;-62
2024/02/09 05:36:26;;;;;;;16.52;9.52;;;;;;;-145.63;100.00;61273.97;5034436;28;20025;-62
2024/02/09 05:38:54;;;;;;;13.05;9.25;;;;;;;-145.63;100.00;61273.97;5016744;28;20045;-63
2024/02/09 05:41:23;;;;;;;15.50;10.00;;;;;;;-145.63;100.00;61273.97;5027990;28;20116;-63
2024/02/09 05:43:53;;;;;;;16.83;10.00;;;;;;;-145.63;100.00;61273.97;5033594;28;20025;-61
2024/02/09 05:46:18;;;;;;;17.83;9.90;;;;;;;-145.63;100.00;61273.97;5020265;28;20060;-63
2024/02/09 05:48:45;;;;;;;14.63;9.38;;;;;;;-145.63;100.00;61273.97;5034152;28;20463;-63
2024/02/09 05:51:12;;;;;;;15.15;9.38;;;;;;;-145.63;100.00;61273.97;5017515;28;20034;-65
2024/02/09 05:53:41;;;;;;;15.48;9.90;;;;;;;-145.63;100.00;61273.97;5030751;28;20029;-63
2024/02/09 05:56:19;;;;;;;14.43;8.98;;;;;;;-145.63;100.00;61273.97;5026162;28;20215;-63
2024/02/09 05:58:51;;;;;;;15.73;8.63;;;;;;;-145.63;100.00;61273.97;5025693;28;20668;-62
2024/02/09 06:01:20;;;;;;;12.93;8.25;;;;;;;-145.63;100.00;61273.97;5019062;28;20052;-63
2024/02/09 06:03:46;;;;;;;13.40;8.90;;;;;;;-145.63;100.00;61273.97;5033288;28;20366;-63
2024/02/09 06:06:15;;;;;;;13.20;8.40;;;;;;;-145.63;100.00;61273.97;5024226;28;20045;-64
2024/02/09 06:08:47;;;;;;;14.40;8.80;;;;;;;-145.63;100.00;61273.97;5030467;28;20040;-62
2024/02/09 06:11:15;;;;;;;14.70;8.45;;;;;;;-145.63;100.00;61273.97;5029149;28;20041;-61
2024/02/09 06:13:45;;;;;;;13.45;8.63;;;;;;;-145.63;100.00;61273.97;5053684;28;20036;-63
2024/02/09 06:16:15;;;;;;;11.98;8.25;;;;;;;-145.63;100.00;61273.97;5021944;28;20029;-63
2024/02/09 06:18:44;;;;;;;13.10;9.07;;;;;;;-145.63;100.00;61273.97;5033769;28;20047;-62
2024/02/09 06:21:10;;;;;;;12.48;7.85;;;;;;;-145.63;100.00;61273.97;5013847;28;20026;-62
2024/02/09 06:23:39;;;;;;;14.02;8.23;;;;;;;-145.63;100.00;61273.97;5028829;28;20099;-65
2024/02/09 06:26:05;;;;;;;13.75;7.55;;;;;;;-145.63;100.00;61273.97;5026713;28;20049;-63
2024/02/09 06:28:31;;;;;;;12.65;8.48;;;;;;;-145.63;100.00;61273.97;5033722;28;20486;-63
2024/02/09 06:30:57;;;;;;;16.35;10.02;;;;;;;-145.63;100.00;61273.97;5031437;28;20037;-65
2024/02/09 06:33:25;;;;;;;15.02;8.02;;;;;;;-145.63;100.00;61273.97;5012512;28;20126;-63
2024/02/09 06:35:50;;;;;;;12.82;7.43;;;;;;;-145.63;100.00;61273.97;5027096;28;20112;-64
2024/02/09 06:38:19;;;;;;;10.27;7.15;;;;;;;-145.63;100.00;61273.97;5033328;28;20483;-62
2024/02/09 06:40:46;;;;;;;13.55;7.53;;;;;;;-145.63;100.00;61273.97;5027889;28;20033;-63
2024/02/09 06:43:13;;;;;;;13.38;8.02;;;;;;;-145.63;100.00;61273.97;5033572;28;20395;-63
2024/02/09 06:45:39;;;;;;;12.88;7.53;;;;;;;-145.63;100.00;61273.97;5020964;28;20057;-62
2024/02/09 06:48:06;;;;;;;13.68;8.10;;;;;;;-145.63;100.00;61273.97;5038030;28;20126;-62
2024/02/09 06:50:35;;;;;;;17.65;9.45;;;;;;;-145.63;100.00;61273.97;5028141;28;20037;-61
2024/02/09 06:53:05;;;;;;;13.27;7.63;;;;;;;-145.63;100.00;61273.97;5027925;28;20043;-61
2024/02/09 06:55:36;;;;;;;14.70;8.02;;;;;;;-145.63;100.00;61273.97;5028349;28;20030;-62
2024/02/09 06:58:03;;;;;;;12.07;8.25;;;;;;;-145.63;100.00;61273.97;5031512;28;20045;-62
2024/02/09 07:00:28;;;;;;;13.20;7.45;;;;;;;-145.63;100.00;61273.97;5013909;28;20027;-63
2024/02/09 07:02:55;;;;;;;13.27;7.38;;;;;;;-145.63;100.00;61273.97;5030694;28;20029;-63
2024/02/09 07:05:22;;;;;;;14.40;8.18;;;;;;;-145.63;100.00;61273.97;5033039;28;20025;-65
2024/02/09 07:07:52;;;;;;;13.57;6.97;;;;;;;-145.63;100.00;61273.97;5022350;28;20124;-64
2024/02/09 07:10:25;;;;;;;11.48;6.97;;;;;;;-145.63;100.00;61273.97;5017163;28;20045;-64
2024/02/09 07:12:53;;;;;;;14.82;7.43;;;;;;;-145.63;100.00;61273.97;5028796;28;20033;-66
2024/02/09 07:15:20;;;;;;;10.15;7.15;;;;;;;-145.63;100.00;61273.97;5032395;28;20029;-63
2024/02/09 07:17:45;;;;;;;15.38;7.63;;;;;;;-145.63;100.00;61273.97;5033008;28;20039;-63
2024/02/09 07:20:12;;;;;;;13.48;7.15;;;;;;;-145.63;100.00;61273.97;5032920;28;20030;-62
2024/02/09 07:22:38;;;;;;;12.25;8.20;;;;;;;-145.63;100.00;61273.97;5032357;28;20090;-64
2024/02/09 07:25:05;;;;;;;13.77;7.47;;;;;;;-145.63;100.00;61273.97;5032673;28;20030;-63
2024/02/09 07:27:31;;;;;;;12.45;7.65;;;;;;;-145.63;100.00;61273.97;5032870;28;20030;-66
2024/02/09 07:29:59;;;;;;;12.98;7.22;;;;;;;-145.63;100.00;61273.97;5014873;28;20455;-63
2024/02/09 07:32:24;;;;;;;12.23;6.68;;;;;;;-145.63;100.00;61273.97;5025652;28;20056;-62
2024/02/09 07:34:52;;;;;;;10.15;6.78;;;;;;;-145.63;100.00;61273.97;5032369;28;20111;-63
2024/02/09 07:37:19;;;;;;;11.20;6.70;;;;;;;-145.63;100.00;61273.97;5020035;28;20579;-64
2024/02/09 07:39:45;;;;;;;14.18;8.18;;;;;;;-145.63;100.00;61273.97;5032466;28;20037;-63
2024/02/09 07:42:11;;;;;;;13.65;7.75;;;;;;;-145.63;100.00;61273.97;5031998;28;20032;-63
2024/02/09 07:44:37;;;;;;;12.25;7.18;;;;;;;-145.63;100.00;61273.97;5032249;28;20052;-63
2024/02/09 07:47:06;;;;;;;10.93;6.35;;;;;;;-145.63;100.00;61273.97;5031740;28;20451;-64
2024/02/09 07:49:33;;;;;;;17.98;6.90;;;;;;;-145.63;100.00;61273.97;5028873;28;20116;-63
2024/02/09 07:52:00;;;;;;;9.85;6.20;;;;;;;-145.63;100.00;61273.97;5026180;28;20045;-66
2024/02/09 07:54:27;;;;;;;10.48;6.13;;;;;;;-145.63;100.00;61273.97;5031857;28;20087;-62
2024/02/09 07:56:53;;;;;;;9.80;6.55;;;;;;;-145.63;100.00;61273.97;5031881;28;20114;-63
2024/02/09 07:59:20;;;;;;;9.32;5.78;;;;;;;-145.63;100.00;61273.97;5019792;28;20025;-63
2024/02/09 08:01:47;;;;;;;10.20;6.22;;;;;;;-145.63;100.00;61273.97;5015673;28;20034;-64
2024/02/09 08:04:13;;;;;;;7.90;5.95;;;;;;;-145.63;100.00;61273.97;5015415;28;20029;-64
2024/02/09 08:06:39;;;;;;;9.63;5.63;;;;;;;-145.63;100.00;61273.97;5031983;28;20033;-64
2024/02/09 08:09:05;;;;;;;9.25;5.60;;;;;;;-145.63;100.00;61273.97;5013633;28;20030;-65
2024/02/09 08:11:31;;;;;;;9.10;5.60;;;;;;;-145.63;100.00;61273.97;5030508;28;20111;-65
2024/02/09 08:13:58;;;;;;;9.43;5.85;;;;;;;-145.63;100.00;61273.97;5042192;28;20581;-64
2024/02/09 08:16:23;;;;;;;11.38;5.90;;;;;;;-145.63;100.00;61273.97;5029472;28;20348;-63
2024/02/09 08:18:50;;;;;;;7.72;5.55;;;;;;;-145.63;100.00;61273.97;5031429;28;20034;-65
2024/02/09 08:21:17;;;;;;;9.57;5.72;;;;;;;-145.63;100.00;61273.97;5031903;28;20060;-64
2024/02/09 08:23:43;;;;;;;9.95;5.80;;;;;;;-145.63;100.00;61273.97;5033074;28;20030;-65
2024/02/09 08:26:10;;;;;;;6.85;4.80;;;;;;;-145.63;100.00;61273.97;5031749;28;20080;-65
2024/02/09 08:28:43;;;;;;;7.15;4.80;;;;;;;-145.63;100.00;61273.97;5032034;28;20475;-64
2024/02/09 08:31:13;;;;;;;6.50;4.60;;;;;;;-145.63;100.00;61273.97;5031594;28;20072;-64
2024/02/09 08:33:39;;;;;;;8.63;5.15;;;;;;;-145.63;100.00;61273.97;5030500;28;20033;-63
2024/02/09 08:36:06;;;;;;;7.93;5.05;;;;;;;-145.63;100.00;61273.97;5026199;28;20065;-63
2024/02/09 08:38:32;;;;;;;6.95;5.38;;;;;;;-145.63;100.00;61273.97;5025644;28;20056;-63
2024/02/09 08:40:58;;;;;;;7.00;4.90;;;;;;;-145.63;100.00;61273.97;5031337;28;20048;-64
2024/02/09 08:43:24;;;;;;;6.03;4.40;;;;;;;-145.63;100.00;61273.97;5032015;28;20167;-64
2024/02/09 08:45:50;;;;;;;7.47;5.00;;;;;;;-145.63;100.00;61273.97;5031209;28;20033;-64
2024/02/09 08:48:16;;;;;;;6.85;4.90;;;;;;;-145.63;100.00;61273.97;5031568;28;20048;-63
2024/02/09 08:50:44;;;;;;;7.35;4.78;;;;;;;-145.63;100.00;61273.97;5031327;28;20040;-63
2024/02/09 08:53:10;;;;;;;10.43;5.38;;;;;;;-145.63;100.00;61273.97;5022964;28;20037;-63
2024/02/09 08:55:36;;;;;;;8.38;5.53;;;;;;;-145.63;100.00;61273.97;5029906;28;20930;-62
2024/02/09 08:58:04;;;;;;;8.40;5.47;;;;;;;-145.63;100.00;61273.97;5012185;28;20033;-63
2024/02/09 09:00:30;;;;;;;9.60;5.43;;;;;;;-145.63;100.00;61273.97;5031206;28;20036;-67
2024/02/09 09:02:56;;;;;;;10.32;5.80;;;;;;;-145.63;100.00;61273.97;5031196;28;20116;-63
2024/02/09 09:05:23;;;;;;;10.48;5.78;;;;;;;-145.63;100.00;61273.97;5029747;28;20611;-63
2024/02/09 09:07:48;;;;;;;9.55;5.57;;;;;;;-145.63;100.00;61273.97;5024143;28;20490;-63
2024/02/09 09:10:14;;;;;;;9.80;5.60;;;;;;;-145.63;100.00;61273.97;5014268;28;20058;-63
2024/02/09 09:12:40;;;;;;;12.27;6.65;;;;;;;-145.63;100.00;61273.97;5045820;28;20041;-64
2024/02/09 09:15:06;;;;;;;9.52;6.85;;;;;;;-145.63;100.00;61273.97;5049797;28;20045;-61
2024/02/09 09:17:32;;;;;;;8.27;5.40;;;;;;;-145.63;100.00;61273.97;5020456;28;20133;-64
2024/02/09 09:19:58;;;;;;;10.30;6.00;;;;;;;-145.63;100.00;61273.97;5019785;28;20517;-64
2024/02/09 09:22:23;;;;;;;9.07;6.35;;;;;;;-145.63;100.00;61273.97;5030098;28;20036;-63
2024/02/09 09:24:50;;;;;;;12.18;6.00;;;;;;;-145.63;100.00;61273.97;5031291;28;20025;-64
2024/02/09 09:27:16;;;;;;;13.23;6.72;;;;;;;-145.63;100.00;61273.97;5031108;28;20417;-62
2024/02/09 09:29:42;;;;;;;15.55;7.25;;;;;;;-145.63;100.00;61273.97;5031152;28;20390;-63
2024/02/09 09:32:07;;;;;;;9.82;6.05;;;;;;;-145.63;100.00;61273.97;5030696;28;20108;-62
2024/02/09 09:34:33;;;;;;;9.07;6.55;;;;;;;-145.63;100.00;61273.97;5031095;28;20029;-63
2024/02/09 09:36:59;;;;;;;9.40;6.00;;;;;;;-145.63;100.00;61273.97;5018600;28;20065;-64
2024/02/09 09:39:25;;;;;;;11.32;5.55;;;;;;;-145.63;100.00;61273.97;5033945;28;20045;-64
2024/02/09 09:41:53;;;;;;;12.50;6.38;;;;;;;-145.63;100.00;61273.97;5034422;28;20433;-63
2024/02/09 09:44:26;;;;;;;7.55;5.45;;;;;;;-145.63;100.00;61273.97;5034542;28;20026;-64
2024/02/09 09:46:52;;;;;;;8.90;5.68;;;;;;;-145.63;100.00;61273.97;5034366;28;20043;-63
2024/02/09 09:49:19;;;;;;;8.23;5.82;;;;;;;-145.63;100.00;61273.97;5034648;28;20354;-63
2024/02/09 09:51:50;;;;;;;8.35;5.80;;;;;;;-145.63;100.00;61273.97;5034287;28;20033;-64
2024/02/09 09:54:21;;;;;;;8.68;5.80;;;;;;;-145.63;100.00;61273.97;5034577;28;20627;-63
2024/02/09 09:56:49;;;;;;;8.60;5.25;;;;;;;-145.63;100.00;61273.97;5030115;28;20386;-64
2024/02/09 09:59:17;;;;;;;9.38;6.20;;;;;;;-145.63;100.00;61273.97;5034227;28;20108;-63
2024/02/09 10:01:46;;;;;;;7.57;5.10;;;;;;;-145.63;100.00;61273.97;5035104;28;20029;-62
2024/02/09 10:04:11;;;;;;;8.57;5.07;;;;;;;-145.63;100.00;61273.97;5034962;28;20422;-62
2024/02/09 10:06:37;;;;;;;8.07;5.38;;;;;;;-145.63;100.00;61273.97;5035709;28;20038;-63
2024/02/09 10:09:04;;;;;;;8.98;5.68;;;;;;;-145.63;100.00;61273.97;5018020;28;20056;-63
2024/02/09 10:11:32;;;;;;;10.70;5.10;;;;;;;-145.63;100.00;61273.97;5022825;28;20348;-63
2024/02/09 10:13:57;;;;;;;9.38;5.68;;;;;;;-145.63;100.00;61273.97;5025602;28;20506;-63
2024/02/09 10:16:23;;;;;;;7.88;4.97;;;;;;;-145.63;100.00;61273.97;5024002;28;20041;-62
2024/02/09 10:18:49;;;;;;;7.60;5.18;;;;;;;-145.63;100.00;61273.97;5035415;28;20037;-62
2024/02/09 10:21:14;;;;;;;5.85;4.20;;;;;;;-145.63;100.00;61273.97;5035190;28;20076;-62
2024/02/09 10:23:40;;;;;;;6.60;4.40;;;;;;;-145.63;100.00;61273.97;5034561;28;20180;-64
2024/02/09 10:26:06;;;;;;;8.18;4.68;;;;;;;-145.63;100.00;61273.97;5034579;28;20481;-63
2024/02/09 10:28:36;;;;;;;8.80;5.00;;;;;;;-145.63;100.00;61273.97;5034903;28;20364;-63
2024/02/09 10:31:03;;;;;;;9.48;5.00;;;;;;;-145.63;100.00;61273.97;5034009;28;20025;-64
2024/02/09 10:33:30;;;;;;;9.55;5.20;;;;;;;-145.63;100.00;61273.97;5035103;28;20029;-64
2024/02/09 10:35:57;;;;;;;8.57;5.00;;;;;;;-145.63;100.00;61273.97;5034457;28;20030;-64
2024/02/09 10:38:28;;;;;;;8.35;4.50;;;;;;;-145.63;100.00;61273.97;5023892;28;20050;-63
2024/02/09 10:40:56;;;;;;;8.32;5.07;;;;;;;-145.63;100.00;61273.97;5022401;28;20456;-63
2024/02/09 10:43:23;;;;;;;6.95;5.20;;;;;;;-145.63;100.00;61273.97;5034725;28;20495;-62
2024/02/09 10:45:52;;;;;;;8.13;5.57;;;;;;;-145.63;100.00;61273.97;5033352;28;20498;-66
2024/02/09 10:48:23;;;;;;;8.10;5.45;;;;;;;-145.63;100.00;61273.97;5034258;28;20422;-64
2024/02/09 10:50:55;;;;;;;7.05;5.18;;;;;;;-145.63;100.00;61273.97;5018032;28;20040;-64
2024/02/09 10:53:26;;;;;;;8.10;4.80;;;;;;;-145.63;100.00;61273.97;5025627;28;20037;-64
2024/02/09 10:56:02;;;;;;;10.63;5.50;;;;;;;-145.63;100.00;61273.97;5030195;28;20538;-65
2024/02/09 10:58:37;;;;;;;8.80;5.35;;;;;;;-145.63;100.00;61273.97;5016867;28;20022;-63
2024/02/09 11:01:05;;;;;;;11.95;5.88;;;;;;;-145.63;100.00;61273.97;5034167;28;20021;-64
2024/02/09 11:03:33;;;;;;;8.80;4.78;;;;;;;-145.63;100.00;61273.97;5033971;28;20080;-63
2024/02/09 11:06:02;;;;;;;13.52;8.20;;;;;;;-145.63;100.00;61273.97;5034116;28;20033;-63
2024/02/09 11:08:35;;;;;;;8.07;5.50;;;;;;;-145.63;100.00;61273.97;5033232;28;20117;-63
2024/02/09 11:11:03;;;;;;;9.13;5.32;;;;;;;-145.63;100.00;61273.97;5033747;28;20485;-64
2024/02/09 11:13:30;;;;;;;10.73;5.72;;;;;;;-145.63;100.00;61273.97;5050419;28;20022;-64
2024/02/09 11:15:58;;;;;;;7.00;5.10;;;;;;;-145.63;100.00;61273.97;5030026;28;20038;-64
2024/02/09 11:18:35;;;;;;;7.05;4.32;;;;;;;-145.63;100.00;61273.97;5033705;28;20025;-64
2024/02/09 11:21:06;;;;;;;12.10;5.07;;;;;;;-145.63;100.00;61273.97;5033599;28;20482;-63
2024/02/09 11:23:37;;;;;;;7.32;4.57;;;;;;;-145.63;100.00;61273.97;5033992;28;20038;-64
2024/02/09 11:26:09;;;;;;;7.10;4.72;;;;;;;-145.63;100.00;61273.97;5028523;28;20112;-62
2024/02/09 11:28:34;;;;;;;8.95;4.68;;;;;;;-145.63;100.00;61273.97;5033044;28;20041;-67
2024/02/09 11:31:01;;;;;;;6.53;4.45;;;;;;;-145.63;100.00;61273.97;5032038;28;20026;-63
2024/02/09 11:33:28;;;;;;;8.48;4.78;;;;;;;-145.63;100.00;61273.97;5033611;28;20140;-62
2024/02/09 11:35:53;;;;;;;10.85;4.95;;;;;;;-145.63;100.00;61273.97;5033357;28;20029;-65
2024/02/09 11:38:21;;;;;;;9.80;4.82;;;;;;;-145.63;100.00;61273.97;5033930;28;20057;-63
2024/02/09 11:40:51;;;;;;;7.47;4.85;;;;;;;-145.63;100.00;61273.97;5033481;28;20052;-65
2024/02/09 11:43:17;;;;;;;8.68;4.88;;;;;;;-145.63;100.00;61273.97;5028683;28;20049;-64
2024/02/09 11:45:44;;;;;;;10.65;5.07;;;;;;;-145.63;100.00;61273.97;5033464;28;20025;-63
2024/02/09 11:48:11;;;;;;;9.45;4.65;;;;;;;-145.63;100.00;61273.97;5030752;28;20403;-64
2024/02/09 11:50:36;;;;;;;9.68;5.10;;;;;;;-145.63;100.00;61273.97;5030226;28;20037;-65
2024/02/09 11:53:04;;;;;;;8.43;5.05;;;;;;;-145.63;100.00;61273.97;5024947;28;20022;-64
2024/02/09 11:55:29;;;;;;;7.18;4.85;;;;;;;-145.63;100.00;61273.97;5024479;28;20044;-64
2024/02/09 11:57:55;;;;;;;10.60;5.75;;;;;;;-145.63;100.00;61273.97;5023449;28;20021;-65
2024/02/09 12:00:25;;;;;;;10.07;5.40;;;;;;;-145.63;100.00;61273.97;5023166;28;20030;-65
2024/02/09 12:02:52;;;;;;;7.32;4.93;;;;;;;-145.63;100.00;61273.97;5024043;28;20423;-64
2024/02/09 12:05:19;;;;;;;9.70;4.53;;;;;;;-145.63;100.00;61273.97;5024578;28;20040;-65
2024/02/09 12:07:45;;;;;;;9.68;5.28;;;;;;;-145.63;100.00;61273.97;5026168;28;20021;-64
2024/02/09 12:10:11;;;;;;;7.45;5.57;;;;;;;-145.63;100.00;61273.97;5022853;28;20072;-66
2024/02/09 12:12:36;;;;;;;8.63;4.80;;;;;;;-145.63;100.00;61273.97;5025272;28;20774;-65
2024/02/09 12:15:06;;;;;;;16.48;5.78;;;;;;;-145.63;100.00;61273.97;5023615;28;20030;-65
2024/02/09 12:17:32;;;;;;;8.68;5.32;;;;;;;-145.63;100.00;61273.97;5026699;28;20021;-65
2024/02/09 12:20:08;;;;;;;10.15;5.00;;;;;;;-145.63;100.00;61273.97;5028988;28;20033;-66
2024/02/09 12:22:36;;;;;;;6.20;4.72;;;;;;;-145.63;100.00;61273.97;5032538;28;20030;-65
2024/02/09 12:25:03;;;;;;;7.63;4.60;;;;;;;-145.63;100.00;61273.97;5028214;28;20037;-66
2024/02/09 12:27:30;;;;;;;7.93;4.80;;;;;;;-145.63;100.00;61273.97;5029428;28;20063;-65
2024/02/09 12:29:58;;;;;;;6.82;4.65;;;;;;;-145.63;100.00;61273.97;5027708;28;20033;-64
2024/02/09 12:32:24;;;;;;;6.32;4.45;;;;;;;-145.63;100.00;61273.97;5023923;28;20033;-65
2024/02/09 12:34:54;;;;;;;8.23;4.90;;;;;;;-145.63;100.00;61273.97;5026262;28;20048;-65
2024/02/09 12:37:21;;;;;;;10.82;4.60;;;;;;;-145.63;100.00;61273.97;5024250;28;20118;-64
2024/02/09 12:39:48;;;;;;;7.03;5.15;;;;;;;-145.63;100.00;61273.97;5024156;28;20046;-66
2024/02/09 12:42:14;;;;;;;7.10;4.97;;;;;;;-145.63;100.00;61273.97;5020801;28;20054;-65
2024/02/09 12:44:49;;;;;;;9.80;4.63;;;;;;;-145.63;100.00;61273.97;5025012;28;20041;-65
2024/02/09 12:47:16;;;;;;;6.75;4.35;;;;;;;-145.63;100.00;61273.97;5032069;28;20039;-65
2024/02/09 12:49:49;;;;;;;7.65;5.00;;;;;;;-145.63;100.00;61273.97;5027861;28;20054;-66
2024/02/09 12:52:15;;;;;;;8.50;4.90;;;;;;;-145.63;100.00;61273.97;5013277;28;20038;-66
2024/02/09 12:54:43;;;;;;;8.73;5.18;;;;;;;-145.63;100.00;61273.97;5032630;28;20396;-65